Adelma Beach, Washington
Current Conditions -  °F | °C
As of 2:56 PM on Friday 28 Nov 2014 (Local Time) from KNUW Reporting Station
Broken Clouds Broken Clouds  
Wind Chill: 37°   Ceiling: 4000
Heat Index: 41°   Visibility: 10mi
Dew Point: 37°   Wind: 6mph
Humidity: 86%   Direction: 110°ESE
Pressure: 29.49"   Gusts: NA
Location:  48.026°N, 122.859°W
Report Text: KNUW 282256Z 11005KT 10SM SCT020 BKN040 BKN100 05/03 A2949 RMK AO2 SLP989 T00500028 $
Loading
Personal Weather Stations






























Interactive Weather Map New forecast layout! Learn more

10-Day Weather Forecast

Advertisements
Track Severe Weather on mobile